Time;durP1;ratioP1;P1;durP2;ratioP2;P2;SDS_P1;SDS_P2;PMS_P1;PMS_P2;Temp;Humidity;BMP_temperature;BMP_pressure;BME280_temperature;BME280_humidity;BME280_pressure;Samples;Min_cycle;Max_cycle;Signal;HPM_P1;HPM_P2
2022/05/02 00:01:26;;;;;;;9.10;6.97;;;;;;;12.96;50.61;101845.31;5078511;28;20161;-71
2022/05/02 00:03:51;;;;;;;7.70;6.90;;;;;;;12.87;50.75;101839.03;5078943;28;20176;-71
2022/05/02 00:06:17;;;;;;;8.30;7.40;;;;;;;12.91;50.73;101843.47;5078383;28;20219;-71
2022/05/02 00:08:42;;;;;;;7.60;6.90;;;;;;;12.67;50.55;101846.50;5077542;28;20205;-71
2022/05/02 00:11:07;;;;;;;7.53;6.83;;;;;;;12.98;49.86;101843.56;5078567;28;20180;-72
2022/05/02 00:13:33;;;;;;;8.00;7.30;;;;;;;13.14;49.47;101841.25;5078189;28;20172;-72
2022/05/02 00:15:58;;;;;;;6.63;5.93;;;;;;;12.88;50.28;101846.91;5078521;28;20282;-72
2022/05/02 00:18:23;;;;;;;5.90;5.40;;;;;;;13.15;49.78;101845.59;5078674;28;20187;-70
2022/05/02 00:20:49;;;;;;;6.53;5.63;;;;;;;13.19;49.85;101826.50;5077996;28;20180;-73
2022/05/02 00:23:14;;;;;;;6.43;5.83;;;;;;;13.09;48.59;101833.28;5077981;28;20199;-72
2022/05/02 00:25:39;;;;;;;9.63;5.87;;;;;;;13.03;48.63;101830.59;5078451;28;20196;-72
2022/05/02 00:28:05;;;;;;;6.87;6.27;;;;;;;13.26;48.47;101815.25;5078147;28;20458;-72
2022/05/02 00:30:31;;;;;;;8.80;7.30;;;;;;;12.82;49.72;101824.97;5077929;28;20206;-72
2022/05/02 00:32:57;;;;;;;8.40;7.60;;;;;;;12.50;50.57;101825.25;5078442;28;20177;-71
2022/05/02 00:35:23;;;;;;;6.80;6.10;;;;;;;12.64;49.97;101823.78;5078305;28;20460;-71
2022/05/02 00:37:48;;;;;;;6.03;5.43;;;;;;;12.27;50.86;101817.81;5078157;28;20437;-72
2022/05/02 00:40:15;;;;;;;6.80;6.13;;;;;;;12.22;51.14;101812.53;5078554;28;20780;-71
2022/05/02 00:42:45;;;;;;;9.10;6.33;;;;;;;12.23;51.31;101814.28;5077994;28;20486;-71
2022/05/02 00:45:12;;;;;;;7.70;6.90;;;;;;;12.11;51.51;101817.53;5067673;28;20495;-71
2022/05/02 00:47:37;;;;;;;9.90;6.73;;;;;;;12.12;51.42;101814.06;5077715;28;20471;-71
2022/05/02 00:50:05;;;;;;;8.13;7.00;;;;;;;12.01;51.56;101812.94;5078018;28;20500;-71
2022/05/02 00:52:30;;;;;;;8.37;7.37;;;;;;;12.19;51.35;101814.19;5077351;28;20539;-71
2022/05/02 00:54:55;;;;;;;7.60;6.80;;;;;;;11.92;51.69;101823.16;5077756;28;20481;-71
2022/05/02 00:57:21;;;;;;;7.90;6.70;;;;;;;12.10;51.28;101810.53;5077145;28;20164;-70
2022/05/02 00:59:46;;;;;;;7.30;6.60;;;;;;;12.30;51.13;101817.91;5078024;28;20430;-71
2022/05/02 01:02:14;;;;;;;9.10;7.30;;;;;;;12.09;51.61;101815.72;5077760;28;20189;-71
2022/05/02 01:04:40;;;;;;;7.23;6.60;;;;;;;12.01;51.34;101827.75;5077701;28;20180;-71
2022/05/02 01:07:20;;;;;;;6.80;5.80;;;;;;;11.91;51.48;101824.03;5077387;28;20816;-70
2022/05/02 01:09:50;;;;;;;7.70;6.40;;;;;;;11.70;52.02;101830.53;5077704;28;20180;-69
2022/05/02 01:12:19;;;;;;;6.63;6.03;;;;;;;11.93;51.88;101827.56;5077602;28;20463;-71
2022/05/02 01:14:47;;;;;;;8.37;6.87;;;;;;;11.92;52.36;101817.94;5077589;28;20434;-71
2022/05/02 01:17:13;;;;;;;7.00;6.30;;;;;;;11.91;51.87;101814.47;5077514;28;20824;-70
2022/05/02 01:19:38;;;;;;;7.63;6.87;;;;;;;11.82;52.58;101818.63;5078045;28;20419;-70
2022/05/02 01:22:04;;;;;;;8.43;7.20;;;;;;;11.49;53.80;101823.09;5078503;28;20265;-71
2022/05/02 01:24:37;;;;;;;7.50;6.70;;;;;;;11.54;53.81;101815.38;5083020;28;20188;-70
2022/05/02 01:27:04;;;;;;;7.60;6.90;;;;;;;11.65;53.84;101820.84;5080232;28;20568;-72
2022/05/02 01:29:31;;;;;;;8.67;7.77;;;;;;;11.91;52.82;101824.03;5077791;28;20472;-72
2022/05/02 01:31:57;;;;;;;7.90;6.40;;;;;;;11.85;52.98;101829.13;5078410;28;20454;-72
2022/05/02 01:34:22;;;;;;;9.00;6.70;;;;;;;12.13;52.67;101823.66;5081630;28;20438;-73
2022/05/02 01:36:47;;;;;;;7.50;6.20;;;;;;;12.05;52.24;101822.63;5081311;28;20181;-71
2022/05/02 01:39:13;;;;;;;7.63;6.83;;;;;;;12.02;52.55;101830.41;5081225;28;20180;-71
2022/05/02 01:41:38;;;;;;;8.30;7.50;;;;;;;12.04;52.39;101823.50;5081342;28;20250;-72
2022/05/02 01:44:03;;;;;;;7.83;7.03;;;;;;;12.07;52.24;101817.41;5081296;28;20181;-72
2022/05/02 01:46:29;;;;;;;11.30;7.40;;;;;;;12.16;51.90;101817.63;5068037;28;20280;-71
2022/05/02 01:48:55;;;;;;;9.37;7.50;;;;;;;11.88;52.48;101821.34;5077101;28;20226;-70
2022/05/02 01:51:20;;;;;;;10.47;7.10;;;;;;;11.60;52.98;101815.53;5060368;28;20594;-71
2022/05/02 01:53:46;;;;;;;7.23;6.53;;;;;;;11.81;52.30;101812.50;5067935;28;20554;-71
2022/05/02 01:56:11;;;;;;;10.73;7.60;;;;;;;11.87;52.35;101809.16;5081676;28;20259;-71
2022/05/02 01:58:37;;;;;;;6.87;6.20;;;;;;;11.84;52.00;101815.19;5080740;28;20191;-70
2022/05/02 02:01:02;;;;;;;7.63;6.93;;;;;;;11.72;52.29;101820.16;5080739;28;20208;-71
2022/05/02 02:03:27;;;;;;;8.40;6.73;;;;;;;11.76;52.40;101817.63;5081013;28;20191;-72
2022/05/02 02:05:53;;;;;;;8.00;6.60;;;;;;;12.03;51.33;101808.66;5080697;28;20208;-71
2022/05/02 02:08:24;;;;;;;9.03;6.80;;;;;;;11.89;51.71;101810.06;5080745;28;20232;-70
2022/05/02 02:10:51;;;;;;;8.10;7.20;;;;;;;11.76;51.88;101807.19;5081135;28;20442;-71
2022/05/02 02:13:16;;;;;;;9.23;7.20;;;;;;;11.69;51.52;101810.50;5080535;28;20397;-71
2022/05/02 02:15:41;;;;;;;10.20;6.93;;;;;;;11.55;51.92;101806.69;5080663;28;20796;-70
2022/05/02 02:18:07;;;;;;;7.00;6.30;;;;;;;11.56;52.45;101805.84;5081299;28;20173;-71
2022/05/02 02:20:33;;;;;;;7.37;6.67;;;;;;;11.41;52.27;101799.41;5080533;28;20234;-71
2022/05/02 02:22:59;;;;;;;8.83;7.03;;;;;;;11.38;52.72;101801.97;5079593;28;20188;-71
2022/05/02 02:25:24;;;;;;;9.13;6.97;;;;;;;11.18;53.25;101803.22;5080145;28;20826;-70
2022/05/02 02:27:49;;;;;;;7.47;6.77;;;;;;;11.02;53.57;101808.06;5080384;28;20180;-70
2022/05/02 02:30:16;;;;;;;8.10;7.30;;;;;;;11.24;52.81;101799.03;5080839;28;20475;-71
2022/05/02 02:32:41;;;;;;;7.93;6.60;;;;;;;11.15;53.31;101790.09;5080553;28;20227;-71
2022/05/02 02:35:07;;;;;;;8.00;7.20;;;;;;;11.10;53.25;101790.00;5080186;28;20698;-71
2022/05/02 02:37:33;;;;;;;10.40;6.53;;;;;;;10.96;53.75;101794.88;5080373;28;20173;-71
2022/05/02 02:39:58;;;;;;;14.40;7.87;;;;;;;11.15;53.67;101791.00;5080459;28;20731;-71
2022/05/02 02:42:24;;;;;;;7.60;6.70;;;;;;;10.94;54.10;101799.16;5079861;28;20226;-71
2022/05/02 02:44:50;;;;;;;11.80;7.33;;;;;;;10.77;54.39;101789.19;5078632;28;20187;-71
2022/05/02 02:47:15;;;;;;;8.50;6.70;;;;;;;10.97;54.68;101782.69;5063220;28;20463;-72
2022/05/02 02:49:40;;;;;;;7.20;6.50;;;;;;;11.16;53.78;101786.63;5080137;28;20173;-70
2022/05/02 02:52:07;;;;;;;7.17;6.47;;;;;;;10.96;54.68;101784.44;5080073;28;20619;-70
2022/05/02 02:54:32;;;;;;;8.00;7.20;;;;;;;10.74;54.85;101783.00;5079926;28;20547;-70
2022/05/02 02:56:57;;;;;;;8.47;7.47;;;;;;;10.76;55.03;101787.41;5079835;28;20434;-70
2022/05/02 02:59:23;;;;;;;9.17;7.57;;;;;;;11.04;54.45;101776.78;5080195;28;20176;-70
2022/05/02 03:01:48;;;;;;;12.93;8.90;;;;;;;11.01;54.23;101774.97;5079693;28;20483;-69
2022/05/02 03:06:58;;;;;;;7.13;6.43;;;;;;;10.62;55.41;101778.34;5079477;28;20219;-70
2022/05/02 03:09:23;;;;;;;9.03;8.23;;;;;;;10.65;55.39;101778.44;5079449;28;20675;-70
2022/05/02 03:11:48;;;;;;;7.93;7.23;;;;;;;10.67;55.46;101776.75;5079948;28;20441;-70
2022/05/02 03:14:14;;;;;;;8.13;7.10;;;;;;;10.64;55.74;101766.22;5078821;28;20188;-70
2022/05/02 03:16:39;;;;;;;8.53;7.30;;;;;;;10.76;55.48;101776.97;5079421;28;20185;-70
2022/05/02 03:19:04;;;;;;;8.87;7.97;;;;;;;10.52;55.84;101768.53;5079671;28;20181;-70
2022/05/02 03:21:29;;;;;;;8.27;7.47;;;;;;;10.40;56.04;101782.09;5079173;28;20176;-70
2022/05/02 03:23:55;;;;;;;8.60;7.70;;;;;;;10.72;56.04;101771.66;5079451;28;20226;-70
2022/05/02 03:26:20;;;;;;;8.57;7.73;;;;;;;10.51;56.25;101778.06;5079574;28;20250;-70
2022/05/02 03:28:45;;;;;;;8.13;7.13;;;;;;;10.34;56.88;101776.72;5079526;28;20264;-70
2022/05/02 03:31:11;;;;;;;8.20;7.50;;;;;;;10.43;56.39;101771.75;5079322;28;20482;-71
2022/05/02 03:33:36;;;;;;;8.20;7.40;;;;;;;10.47;56.68;101768.38;5079479;28;20222;-71
2022/05/02 03:36:01;;;;;;;9.53;7.30;;;;;;;10.34;57.11;101766.28;5079069;28;20177;-71
2022/05/02 03:38:27;;;;;;;9.90;7.50;;;;;;;10.49;56.55;101765.84;5078925;28;20181;-71
2022/05/02 03:40:52;;;;;;;8.83;7.93;;;;;;;10.61;56.38;101764.44;5079301;28;20176;-71
2022/05/02 03:43:17;;;;;;;8.53;7.77;;;;;;;10.35;57.21;101765.44;5078695;28;20604;-71
2022/05/02 03:45:42;;;;;;;8.27;6.77;;;;;;;10.22;57.09;101769.44;5068448;28;20231;-71
2022/05/02 03:48:08;;;;;;;9.60;8.30;;;;;;;10.62;56.37;101767.91;5079187;28;20177;-71
2022/05/02 03:50:33;;;;;;;8.70;7.73;;;;;;;10.45;56.80;101776.16;5078785;28;20216;-71
2022/05/02 03:52:59;;;;;;;8.73;7.47;;;;;;;10.58;56.62;101769.56;5078600;28;20184;-72
2022/05/02 03:55:24;;;;;;;9.70;8.70;;;;;;;10.47;56.92;101777.94;5078568;28;20157;-71
2022/05/02 03:57:49;;;;;;;8.83;7.80;;;;;;;10.47;56.92;101778.81;5078744;28;20234;-71
2022/05/02 04:00:15;;;;;;;9.97;8.17;;;;;;;10.68;56.16;101778.50;5078590;28;20456;-71
2022/05/02 04:02:41;;;;;;;9.50;8.00;;;;;;;10.63;56.46;101780.09;5078809;28;20183;-71
2022/05/02 04:05:07;;;;;;;8.57;7.77;;;;;;;10.52;56.65;101778.94;5078353;28;20713;-70
2022/05/02 04:07:32;;;;;;;9.40;7.50;;;;;;;10.41;57.01;101773.44;5077649;28;20533;-71
2022/05/02 04:09:58;;;;;;;9.50;7.33;;;;;;;10.26;57.47;101779.09;5078814;28;20172;-70
2022/05/02 04:12:23;;;;;;;9.30;7.60;;;;;;;10.31;57.32;101780.13;5078193;28;20215;-71
2022/05/02 04:14:49;;;;;;;9.73;7.60;;;;;;;10.57;56.43;101778.22;5078455;28;20656;-72
2022/05/02 04:17:14;;;;;;;10.00;7.73;;;;;;;10.76;56.20;101784.81;5078715;28;20169;-71
2022/05/02 04:19:40;;;;;;;8.07;7.23;;;;;;;10.65;56.89;101772.31;5082477;28;20326;-73
2022/05/02 04:22:05;;;;;;;8.80;8.00;;;;;;;10.48;57.15;101775.38;5083424;28;20173;-71
2022/05/02 04:24:31;;;;;;;8.40;7.50;;;;;;;10.81;56.38;101778.81;5078503;28;20172;-70
2022/05/02 04:26:57;;;;;;;8.80;7.90;;;;;;;10.45;56.90;101772.69;5077998;28;20289;-70
2022/05/02 04:29:23;;;;;;;8.63;7.83;;;;;;;10.81;56.19;101784.03;5077934;28;20521;-70
2022/05/02 04:31:48;;;;;;;9.43;8.53;;;;;;;10.87;56.28;101779.00;5078413;28;20418;-71
2022/05/02 04:34:14;;;;;;;8.87;7.97;;;;;;;10.78;56.43;101780.53;5078112;28;20176;-71
2022/05/02 04:36:39;;;;;;;7.50;6.33;;;;;;;13.88;60.95;101770.72;5077867;28;20185;-71
2022/05/02 04:39:04;;;;;;;7.83;6.63;;;;;;;15.19;51.38;101774.66;5077926;28;20172;-66
2022/05/02 04:41:30;;;;;;;7.23;6.47;;;;;;;15.43;47.40;101765.19;5077637;28;20165;-66
2022/05/02 04:43:55;;;;;;;7.90;7.20;;;;;;;13.77;47.58;101768.88;5075888;28;20230;-69
2022/05/02 04:46:21;;;;;;;8.87;7.93;;;;;;;12.83;50.04;101774.38;5069354;28;20260;-70
2022/05/02 04:48:46;;;;;;;9.87;8.30;;;;;;;12.14;52.27;101785.34;5077646;28;20196;-68
2022/05/02 04:51:11;;;;;;;11.63;7.00;;;;;;;11.77;53.30;101787.16;5077714;28;20608;-69
2022/05/02 04:53:37;;;;;;;9.90;7.87;;;;;;;11.72;53.44;101794.91;5077718;28;20184;-70
2022/05/02 04:56:02;;;;;;;9.77;8.20;;;;;;;11.82;53.55;101784.66;5077628;28;20186;-70
2022/05/02 04:58:28;;;;;;;11.33;8.20;;;;;;;12.58;51.72;101782.72;5078227;28;20173;-70
2022/05/02 05:00:53;;;;;;;9.27;8.07;;;;;;;12.56;51.96;101786.16;5077694;28;20484;-69
2022/05/02 05:03:19;;;;;;;10.17;8.10;;;;;;;12.03;52.65;101779.91;5077557;28;20183;-69
2022/05/02 05:05:44;;;;;;;10.93;7.90;;;;;;;12.09;52.56;101789.59;5077732;28;20195;-70
2022/05/02 05:08:09;;;;;;;10.30;7.90;;;;;;;11.99;52.78;101775.47;5080814;28;20203;-69
2022/05/02 05:10:48;;;;;;;9.50;7.60;;;;;;;12.27;52.42;101783.84;5080794;28;20226;-69
2022/05/02 05:13:18;;;;;;;9.33;8.33;;;;;;;12.05;52.60;101777.31;5081744;28;20263;-69
2022/05/02 05:16:22;;;;;;;10.63;8.10;;;;;;;12.29;52.99;101771.69;5081754;28;20431;-70
2022/05/02 05:18:58;;;;;;;8.70;7.90;;;;;;;12.15;53.15;101783.59;5058299;28;20819;-69
2022/05/02 05:21:49;;;;;;;8.80;8.00;;;;;;;12.00;52.72;101771.09;5064493;28;20682;-69
2022/05/02 05:24:44;;;;;;;10.23;7.67;;;;;;;12.26;51.22;101769.91;5081503;28;20461;-70
2022/05/02 05:27:32;;;;;;;8.67;7.73;;;;;;;12.95;50.00;101764.13;5084347;28;20459;-70
2022/05/02 05:30:05;;;;;;;8.80;7.90;;;;;;;14.12;47.07;101767.50;5081827;28;20473;-69
2022/05/02 05:32:48;;;;;;;21.47;15.97;;;;;;;15.80;44.29;101755.78;5081447;28;20430;-70
2022/05/02 05:35:23;;;;;;;14.37;10.93;;;;;;;15.99;42.76;101755.81;5081228;28;20386;-70
2022/05/02 05:38:02;;;;;;;16.50;12.20;;;;;;;15.72;43.46;101754.84;5081434;28;20415;-69
2022/05/02 05:40:36;;;;;;;10.80;8.20;;;;;;;14.29;46.45;101758.09;5080269;28;20430;-70
2022/05/02 05:43:27;;;;;;;9.80;8.10;;;;;;;14.26;46.66;101752.81;5081053;28;20393;-69
2022/05/02 05:46:20;;;;;;;9.40;7.67;;;;;;;14.13;46.20;101764.03;5069731;28;20449;-69
2022/05/02 05:49:13;;;;;;;9.47;8.30;;;;;;;14.03;47.96;101760.44;5080925;28;20421;-70
2022/05/02 05:51:50;;;;;;;10.47;7.80;;;;;;;14.37;45.75;101758.19;5065693;28;20389;-70
2022/05/02 05:54:48;;;;;;;11.00;8.10;;;;;;;14.27;47.00;101751.94;5080681;28;20408;-69
2022/05/02 05:57:38;;;;;;;9.43;8.00;;;;;;;14.25;46.23;101760.69;5079940;28;20446;-70
2022/05/02 06:00:09;;;;;;;8.63;7.80;;;;;;;14.01;45.76;101763.91;5080093;28;20423;-69
2022/05/02 06:02:56;;;;;;;11.27;7.60;;;;;;;14.61;44.12;101759.28;5080588;28;20419;-69
2022/05/02 06:05:21;;;;;;;9.83;8.10;;;;;;;14.09;45.35;101765.72;5064234;28;20482;-69
2022/05/02 06:07:47;;;;;;;10.73;7.63;;;;;;;14.05;44.45;101763.06;5080369;28;20426;-69
2022/05/02 06:10:15;;;;;;;10.50;7.33;;;;;;;14.82;43.88;101761.25;5080566;28;20212;-69
2022/05/02 06:12:42;;;;;;;11.00;8.00;;;;;;;15.15;42.54;101763.25;5080925;28;20177;-69
2022/05/02 06:20:44;;;;;;;8.07;7.30;;;;;;;15.82;40.32;101759.28;5073731;28;20485;-69
2022/05/02 06:23:13;;;;;;;10.73;6.60;;;;;;;15.44;40.79;101765.19;5078671;28;20404;-69
2022/05/02 06:25:38;;;;;;;9.70;6.90;;;;;;;14.63;42.14;101768.94;5080305;28;20436;-70
2022/05/02 06:28:05;;;;;;;8.37;6.30;;;;;;;14.35;42.42;101765.13;5080052;28;20732;-69
2022/05/02 06:30:32;;;;;;;7.90;7.13;;;;;;;15.73;40.15;101761.84;5080468;28;20181;-70
2022/05/02 06:32:58;;;;;;;10.87;7.23;;;;;;;16.73;39.25;101753.34;5079071;28;20410;-70
2022/05/02 06:35:27;;;;;;;6.90;6.30;;;;;;;17.39;36.67;101749.81;5080069;28;20400;-69
2022/05/02 06:38:35;;;;;;;7.00;6.30;;;;;;;16.13;38.50;101751.50;5080382;28;20505;-71
2022/05/02 06:41:42;;;;;;;8.80;6.87;;;;;;;16.91;36.09;101752.50;5016134;28;20852;-71
2022/05/02 06:44:13;;;;;;;7.33;6.50;;;;;;;17.97;35.39;101753.16;5068610;28;20430;-68
2022/05/02 06:46:43;;;;;;;10.33;6.27;;;;;;;18.48;33.83;101755.47;5079972;28;20542;-69
2022/05/02 06:49:12;;;;;;;8.60;6.97;;;;;;;18.41;34.13;101746.72;5077093;28;20481;-68
2022/05/02 06:51:39;;;;;;;7.17;6.43;;;;;;;17.94;34.49;101751.41;5079815;28;20424;-68
2022/05/02 06:54:22;;;;;;;6.10;5.50;;;;;;;19.87;30.23;101743.56;5079477;28;20437;-68
2022/05/02 06:56:56;;;;;;;6.37;5.87;;;;;;;18.36;32.40;101748.53;5079644;28;20449;-68
2022/05/02 06:59:39;;;;;;;8.17;5.77;;;;;;;19.51;31.14;101741.34;5062548;28;20468;-67
2022/05/02 07:02:14;;;;;;;6.53;5.80;;;;;;;20.15;28.93;101738.78;5079203;28;20681;-69
2022/05/02 07:04:53;;;;;;;6.30;5.70;;;;;;;19.51;30.01;101746.63;5079526;28;20454;-68
2022/05/02 07:07:48;;;;;;;6.83;5.30;;;;;;;20.46;27.96;101743.63;5079432;28;20418;-68
2022/05/02 07:10:27;;;;;;;5.23;4.73;;;;;;;22.05;25.62;101734.50;5072893;28;20915;-68
2022/05/02 07:13:11;;;;;;;4.40;4.10;;;;;;;22.56;24.87;101738.66;5069987;28;20427;-68
2022/05/02 07:15:50;;;;;;;5.80;4.97;;;;;;;21.69;26.08;101740.56;5075195;28;20496;-66
2022/05/02 07:18:41;;;;;;;5.77;5.10;;;;;;;22.14;25.43;101734.28;5076888;28;20434;-68
2022/05/02 07:21:25;;;;;;;5.50;5.10;;;;;;;23.10;24.18;101739.94;5075021;28;20420;-68
2022/05/02 07:24:01;;;;;;;5.50;5.00;;;;;;;20.72;26.32;101742.34;5079090;28;20516;-69
2022/05/02 07:26:28;;;;;;;4.83;4.43;;;;;;;20.52;26.99;101742.63;5077523;28;20474;-68
2022/05/02 07:28:59;;;;;;;5.20;4.70;;;;;;;22.44;24.85;101737.16;5078768;28;20498;-70
2022/05/02 07:31:24;;;;;;;5.53;5.13;;;;;;;22.88;24.71;101739.63;5078167;28;20427;-70
2022/05/02 07:33:51;;;;;;;6.93;5.23;;;;;;;20.93;26.50;101742.88;5073015;28;20498;-70
2022/05/02 07:36:19;;;;;;;7.13;5.63;;;;;;;22.21;25.98;101743.00;5078766;28;20424;-70
2022/05/02 07:39:01;;;;;;;9.30;5.40;;;;;;;21.43;27.35;101732.22;5076893;28;20427;-70
2022/05/02 07:41:27;;;;;;;10.63;6.10;;;;;;;24.85;23.27;101724.03;5067807;28;20423;-69
2022/05/02 07:44:06;;;;;;;12.40;5.77;;;;;;;24.45;23.77;101731.56;5077414;28;20426;-69
2022/05/02 07:46:51;;;;;;;6.53;5.50;;;;;;;22.68;25.14;101734.81;5076276;28;20490;-71
2022/05/02 07:49:22;;;;;;;5.90;5.23;;;;;;;23.76;23.53;101728.34;5065889;28;20484;-69
2022/05/02 07:51:50;;;;;;;6.50;5.90;;;;;;;23.24;24.20;101730.72;5075683;28;20553;-70
2022/05/02 07:54:24;;;;;;;6.53;5.80;;;;;;;23.88;23.52;101726.22;5075283;28;20442;-71
2022/05/02 07:56:59;;;;;;;12.60;6.23;;;;;;;21.30;26.31;101736.91;5064140;28;20530;-70
2022/05/02 07:59:25;;;;;;;10.03;6.60;;;;;;;23.02;25.68;101725.97;5068500;28;20440;-68
2022/05/02 08:01:51;;;;;;;8.17;7.00;;;;;;;24.35;23.84;101727.44;5075228;28;20431;-70
2022/05/02 08:04:17;;;;;;;10.57;6.30;;;;;;;22.93;24.67;101740.34;5075066;28;20428;-71
2022/05/02 08:06:53;;;;;;;8.40;7.10;;;;;;;22.98;24.91;101730.47;5078100;28;20582;-70
2022/05/02 08:09:29;;;;;;;8.13;6.70;;;;;;;22.83;24.63;101729.09;5077759;28;20499;-70
2022/05/02 08:12:07;;;;;;;10.33;6.70;;;;;;;21.83;25.81;101731.44;5077408;28;20905;-70
2022/05/02 08:14:43;;;;;;;9.93;6.37;;;;;;;22.95;25.36;101735.00;5075688;28;20450;-69
2022/05/02 08:17:37;;;;;;;10.23;6.53;;;;;;;22.60;26.19;101731.50;5077247;28;20419;-70
2022/05/02 08:20:13;;;;;;;7.87;7.20;;;;;;;22.02;25.34;101724.81;5049065;28;21073;-70
2022/05/02 08:29:05;;;;;;;8.90;7.17;;;;;;;24.18;23.87;101718.19;5078091;28;20456;-71
2022/05/02 08:31:47;;;;;;;7.37;6.67;;;;;;;24.39;23.30;101713.09;5077575;28;20465;-69
2022/05/02 08:34:25;;;;;;;8.30;6.87;;;;;;;25.73;21.95;101712.84;5077613;28;20502;-69
2022/05/02 08:36:58;;;;;;;8.47;6.90;;;;;;;24.78;21.86;101710.03;5076509;28;20468;-68
2022/05/02 08:39:33;;;;;;;7.70;6.87;;;;;;;25.16;21.40;101712.28;5067202;28;20424;-68
2022/05/02 08:42:14;;;;;;;7.00;6.40;;;;;;;24.01;22.66;101723.19;5067757;28;20823;-72
2022/05/02 08:45:17;;;;;;;10.40;7.60;;;;;;;24.91;22.05;101714.94;5058033;28;20462;-68
2022/05/02 08:48:04;;;;;;;8.47;7.20;;;;;;;24.01;22.20;101708.06;5073230;28;20828;-67
2022/05/02 08:51:09;;;;;;;7.80;7.10;;;;;;;23.49;23.10;101713.16;5072732;28;20416;-69
2022/05/02 08:54:03;;;;;;;8.30;7.50;;;;;;;26.12;21.13;101698.03;5066560;28;20814;-70
2022/05/02 08:56:49;;;;;;;8.40;7.70;;;;;;;24.73;21.43;101701.31;5072740;28;20835;-70
2022/05/02 08:59:36;;;;;;;7.93;7.23;;;;;;;24.48;21.16;101704.78;5078083;28;20467;-67
2022/05/02 09:02:38;;;;;;;8.43;7.63;;;;;;;24.24;21.54;101702.94;5062162;28;20446;-68
2022/05/02 09:05:41;;;;;;;10.53;6.70;;;;;;;23.95;22.07;101697.63;5089946;28;20434;-67
2022/05/02 09:08:38;;;;;;;7.40;6.80;;;;;;;25.34;20.99;101686.72;5077717;28;20450;-74
2022/05/02 09:11:31;;;;;;;8.43;7.63;;;;;;;26.04;21.00;101687.63;5081080;28;20675;-71
2022/05/02 09:14:27;;;;;;;10.40;7.57;;;;;;;24.83;21.15;101685.84;5066083;28;20423;-71
2022/05/02 09:17:04;;;;;;;7.60;7.00;;;;;;;24.57;21.49;101684.94;5070700;28;20430;-71
2022/05/02 09:19:44;;;;;;;7.93;7.23;;;;;;;25.06;21.50;101682.41;5071331;28;20422;-72
2022/05/02 09:22:46;;;;;;;7.50;6.67;;;;;;;24.31;21.76;101672.50;5059472;28;20423;-72
2022/05/02 09:25:12;;;;;;;8.63;7.90;;;;;;;25.37;20.97;101676.81;5076850;28;20469;-71
2022/05/02 09:28:06;;;;;;;6.70;6.10;;;;;;;24.60;21.00;101683.97;5077031;28;20427;-70
2022/05/02 09:30:58;;;;;;;8.77;8.03;;;;;;;24.95;21.02;101680.13;5077146;28;20477;-72
2022/05/02 09:33:35;;;;;;;7.57;6.87;;;;;;;23.29;22.60;101686.25;5075258;28;20416;-71
2022/05/02 09:36:04;;;;;;;7.23;6.60;;;;;;;24.01;21.68;101680.56;5066662;28;20678;-71
2022/05/02 09:38:47;;;;;;;6.80;6.27;;;;;;;23.96;21.46;101671.84;5077826;28;20422;-71
2022/05/02 09:41:44;;;;;;;7.90;7.20;;;;;;;23.96;21.40;101672.72;5077484;28;20501;-71
2022/05/02 09:50:31;;;;;;;9.33;7.10;;;;;;;25.49;20.25;101667.50;5077821;28;20903;-72
2022/05/02 09:53:38;;;;;;;7.73;7.10;;;;;;;24.44;21.77;101668.50;5076854;28;20422;-70
2022/05/02 09:56:40;;;;;;;9.00;8.10;;;;;;;24.22;22.19;101663.03;5059024;28;20410;-71
2022/05/02 09:59:10;;;;;;;8.30;7.43;;;;;;;24.58;21.88;101653.84;5081286;28;20419;-71
2022/05/02 10:01:42;;;;;;;8.57;7.73;;;;;;;24.44;21.64;101663.16;5081262;28;20414;-71
2022/05/02 10:04:25;;;;;;;7.80;7.10;;;;;;;24.42;21.70;101649.00;5080514;28;20438;-70
2022/05/02 10:06:52;;;;;;;8.00;7.30;;;;;;;24.43;22.44;101657.91;5080205;28;20462;-71
2022/05/02 10:09:17;;;;;;;7.60;6.90;;;;;;;23.94;22.30;101657.72;5080976;28;20406;-71
2022/05/02 10:12:07;;;;;;;7.70;6.90;;;;;;;23.40;23.15;101664.66;5080740;28;20439;-73
2022/05/02 10:14:51;;;;;;;7.17;6.47;;;;;;;24.71;22.72;101644.53;5079677;28;20218;-70
2022/05/02 10:17:41;;;;;;;8.47;7.60;;;;;;;24.64;21.99;101646.53;5077257;28;20815;-70
2022/05/02 10:20:20;;;;;;;9.20;7.90;;;;;;;24.27;22.29;101644.22;5063292;28;20680;-69
2022/05/02 10:23:03;;;;;;;8.33;7.63;;;;;;;24.25;24.11;101640.72;5080676;28;20456;-70
2022/05/02 10:25:40;;;;;;;8.40;7.80;;;;;;;24.72;22.33;101640.91;5079991;28;20753;-70
2022/05/02 10:28:43;;;;;;;7.70;7.00;;;;;;;23.86;22.79;101637.47;5080687;28;20480;-71
2022/05/02 10:31:25;;;;;;;8.80;8.00;;;;;;;24.01;22.89;101632.63;5080641;28;20414;-71
2022/05/02 10:33:52;;;;;;;11.70;8.50;;;;;;;24.26;22.54;101642.47;5060579;28;20442;-69
2022/05/02 10:36:27;;;;;;;7.57;6.97;;;;;;;24.46;22.06;101633.81;5060407;28;20423;-70
2022/05/02 10:38:54;;;;;;;7.50;6.90;;;;;;;23.49;22.96;101627.09;5060215;28;20422;-70
2022/05/02 10:41:44;;;;;;;10.80;7.90;;;;;;;24.19;22.35;101637.34;5060309;28;20416;-70
2022/05/02 10:44:14;;;;;;;8.27;7.60;;;;;;;23.97;22.84;101625.66;5060348;28;20403;-71
2022/05/02 10:46:43;;;;;;;8.53;7.90;;;;;;;22.99;24.53;101630.31;5060201;28;20884;-70
2022/05/02 10:49:24;;;;;;;8.40;7.60;;;;;;;23.34;23.99;101623.13;5066805;28;20491;-70
2022/05/02 10:51:56;;;;;;;8.37;7.50;;;;;;;22.95;24.48;101618.88;5080339;28;20444;-70
2022/05/02 10:54:40;;;;;;;8.30;7.67;;;;;;;22.74;24.78;101627.47;5080193;28;20453;-71
2022/05/02 10:57:20;;;;;;;8.37;7.60;;;;;;;23.10;24.86;101625.56;5080058;28;20513;-69
2022/05/02 10:59:49;;;;;;;10.10;9.20;;;;;;;23.12;24.46;101622.84;5080084;28;20452;-70
2022/05/02 11:02:26;;;;;;;9.40;8.60;;;;;;;22.92;24.64;101613.66;5079113;28;20415;-69
2022/05/02 11:05:07;;;;;;;9.33;8.53;;;;;;;22.66;24.84;101622.34;5078190;28;20411;-70
2022/05/02 11:07:35;;;;;;;9.30;8.40;;;;;;;23.12;24.74;101614.88;5079908;28;20427;-70
2022/05/02 11:10:05;;;;;;;12.50;9.70;;;;;;;23.53;24.61;101611.00;5079857;28;20422;-71
2022/05/02 11:12:36;;;;;;;9.00;8.23;;;;;;;23.79;24.03;101611.97;5079442;28;20445;-69
2022/05/02 11:15:13;;;;;;;8.60;7.97;;;;;;;22.85;25.42;101612.06;5079622;28;20412;-71
2022/05/02 11:18:04;;;;;;;9.60;8.80;;;;;;;23.14;25.08;101608.63;5081166;28;21691;-72
2022/05/02 11:20:51;;;;;;;8.73;8.10;;;;;;;23.58;24.88;101604.66;5081346;28;20410;-70
2022/05/02 11:23:29;;;;;;;8.93;7.97;;;;;;;24.34;23.53;101600.44;5079518;28;20429;-70
2022/05/02 11:25:57;;;;;;;8.97;7.83;;;;;;;23.00;24.95;101597.47;5079332;28;20469;-71
2022/05/02 11:28:55;;;;;;;8.00;7.30;;;;;;;22.63;25.62;101603.81;5079504;28;20403;-71
2022/05/02 11:31:44;;;;;;;8.30;7.60;;;;;;;22.73;25.46;101597.31;5079335;28;20422;-68
2022/05/02 11:34:27;;;;;;;8.80;7.97;;;;;;;22.00;26.37;101595.66;5078951;28;20439;-70
2022/05/02 11:36:55;;;;;;;8.57;7.80;;;;;;;21.99;26.56;101605.41;5079588;28;20419;-70
2022/05/02 11:39:44;;;;;;;14.23;10.07;;;;;;;22.74;25.51;101596.41;5079510;28;20680;-71
2022/05/02 11:42:14;;;;;;;10.20;9.27;;;;;;;22.47;26.71;101584.75;5064968;28;20450;-71
2022/05/02 11:44:51;;;;;;;9.73;8.93;;;;;;;21.76;27.67;101603.31;5079493;28;20677;-70
2022/05/02 11:47:24;;;;;;;9.33;8.50;;;;;;;21.99;26.65;101591.28;5078225;28;20903;-71
2022/05/02 11:50:05;;;;;;;8.13;7.33;;;;;;;22.48;26.78;101586.50;5079032;28;20423;-72
2022/05/02 11:52:32;;;;;;;9.23;8.43;;;;;;;21.87;26.63;101590.63;5078772;28;20403;-70
2022/05/02 11:55:00;;;;;;;8.47;7.67;;;;;;;22.15;27.08;101589.97;5078953;28;20419;-70
2022/05/02 11:57:39;;;;;;;9.40;8.50;;;;;;;21.59;27.15;101593.06;5078935;28;20418;-69
2022/05/02 12:00:08;;;;;;;8.93;8.13;;;;;;;22.31;26.55;101578.94;5078990;28;20710;-71
2022/05/02 12:02:56;;;;;;;9.00;8.20;;;;;;;22.08;26.63;101582.19;5078692;28;20411;-70
2022/05/02 12:05:55;;;;;;;8.70;8.00;;;;;;;22.22;27.14;101577.41;5078009;28;20864;-69
2022/05/02 12:08:31;;;;;;;9.20;8.37;;;;;;;22.08;26.27;101580.41;5045246;28;20415;-69
2022/05/02 12:11:08;;;;;;;9.40;8.50;;;;;;;21.72;26.85;101568.91;5078730;28;20484;-69
2022/05/02 12:13:35;;;;;;;9.33;7.87;;;;;;;22.74;26.39;101559.22;5078429;28;20445;-69